Compassion — 9V2887 — position and weather

sailwx.info

Track history (hours):
 
Tides and Currents Weather Stations Pressure Air Temp Water Temp Dewpoint Dewpoint Depression Visibility Wind Speed Wind Dir Waves Ship Positions

Compassion

Last reported at 2018-Apr-28 11:25 UTC. Time now 2018-Jun-22 13:29 UTC.
Position N 35°58' W 005°34'.
Warning: this ship's position is 55 days out of date.

Length 227 m; draft 12.8 m.

Type: Tanker. MMSI: 565136000.

Date/timePositionNaut miles runAvg speedWind from/ knotsBaromVisibWave heightAir tempDewpointWater temp
2018-Apr-28 11:25N 35°58' W 005°34'511.0
2018-Apr-28 10:59N 35°59' W 005°29'4 7.5
2018-Apr-28 10:31N 35°59' W 005°24'3 6.3
2018-Apr-28 10:00N 35°56' W 005°22'2 3.0
2018-Apr-28 09:30N 35°55' W 005°20'0 0.2
2018-Apr-28 08:58N 35°55' W 005°20'0 0.0
2018-Apr-28 08:25N 35°56' W 005°20'0 0.0
2018-Apr-28 07:58N 35°56' W 005°20'0 0.0
2018-Apr-28 07:29N 35°55' W 005°20'0 0.1
2018-Apr-28 06:59N 35°56' W 005°20'0 0.1
2018-Apr-28 06:26N 35°56' W 005°20'0 0.1
2018-Apr-28 06:00N 35°56' W 005°20'0 0.0
2018-Apr-28 05:30N 35°56' W 005°20'0 0.2
2018-Apr-28 05:00N 35°56' W 005°20'0 0.1
2018-Apr-28 04:28N 35°55' W 005°20'0 0.0
2018-Apr-28 03:58N 35°55' W 005°20'0 0.1
2018-Apr-28 03:28N 35°55' W 005°20'0 0.0
2018-Apr-28 02:59N 35°55' W 005°20'0 0.1
2018-Apr-28 02:29N 35°55' W 005°20'0 0.2
2018-Apr-28 02:01N 35°55' W 005°20'1 1.6
2018-Apr-28 01:30N 35°55' W 005°19'2 3.1
2018-Apr-28 01:01N 35°56' W 005°18'2 4.3
2018-Apr-28 00:29N 35°56' W 005°15'4 8.8
2018-Apr-27 23:59N 35°56' W 005°09'  
2018-Apr-21 17:33N 37°02' E 012°18'613.4
2018-Apr-21 17:06N 36°59' E 012°25'313.3
2018-Apr-21 16:52N 36°58' E 012°29'813.7
2018-Apr-21 16:18N 36°55' E 012°37'411.1
2018-Apr-21 15:57N 36°54' E 012°42'613.5
2018-Apr-21 15:30N 36°51' E 012°49'612.7
2018-Apr-21 15:00N 36°49' E 012°56'713.3
2018-Apr-21 14:30N 36°46' E 013°04'612.9
2018-Apr-21 14:00N 36°43' E 013°11'815.7
2018-Apr-21 13:30N 36°40' E 013°20'611.6
2018-Apr-21 12:59N 36°38' E 013°27'814.3
2018-Apr-21 12:27N 36°35' E 013°36'613.8
2018-Apr-21 11:59N 36°32' E 013°43'815.1
2018-Apr-21 11:28N 36°28' E 013°52'3 7.7
2018-Apr-21 11:00N 36°27' E 013°55'713.3
2018-Apr-21 10:30N 36°24' E 014°03'712.9
2018-Apr-21 10:00N 36°22' E 014°11'713.5
2018-Apr-21 09:31N 36°20' E 014°18'713.4
2018-Apr-21 09:00N 36°17' E 014°26'712.9
2018-Apr-21 08:30N 36°15' E 014°34'814.7
2018-Apr-21 07:59N 36°12' E 014°43'5312.7
2018-Apr-21 03:51N 35°48' E 015°41'  
Track history (hours):
 
Tides and Currents Weather Stations Pressure Air Temp Water Temp Dewpoint Dewpoint Depression Visibility Wind Speed Wind Dir Waves Ship Positions

Compassion

Last reported at 2018-Apr-28 11:25 UTC. Time now 2018-Jun-22 13:29 UTC.
Position N 35°58' W 005°34'.
Warning: this ship's position is 55 days out of date.

Length 227 m; draft 12.8 m.

Type: Tanker. MMSI: 565136000.

Date/timePositionNaut miles runAvg speedWind from/ knotsBaromVisibWave heightAir tempDewpointWater temp
2018-Apr-28 11:25N 35°58' W 005°34'511.0
2018-Apr-28 10:59N 35°59' W 005°29'4 7.5
2018-Apr-28 10:31N 35°59' W 005°24'3 6.3
2018-Apr-28 10:00N 35°56' W 005°22'2 3.0
2018-Apr-28 09:30N 35°55' W 005°20'0 0.2
2018-Apr-28 08:58N 35°55' W 005°20'0 0.0
2018-Apr-28 08:25N 35°56' W 005°20'0 0.0
2018-Apr-28 07:58N 35°56' W 005°20'0 0.0
2018-Apr-28 07:29N 35°55' W 005°20'0 0.1
2018-Apr-28 06:59N 35°56' W 005°20'0 0.1
2018-Apr-28 06:26N 35°56' W 005°20'0 0.1
2018-Apr-28 06:00N 35°56' W 005°20'0 0.0
2018-Apr-28 05:30N 35°56' W 005°20'0 0.2
2018-Apr-28 05:00N 35°56' W 005°20'0 0.1
2018-Apr-28 04:28N 35°55' W 005°20'0 0.0
2018-Apr-28 03:58N 35°55' W 005°20'0 0.1
2018-Apr-28 03:28N 35°55' W 005°20'0 0.0
2018-Apr-28 02:59N 35°55' W 005°20'0 0.1
2018-Apr-28 02:29N 35°55' W 005°20'0 0.2
2018-Apr-28 02:01N 35°55' W 005°20'1 1.6
2018-Apr-28 01:30N 35°55' W 005°19'2 3.1
2018-Apr-28 01:01N 35°56' W 005°18'2 4.3
2018-Apr-28 00:29N 35°56' W 005°15'4 8.8
2018-Apr-27 23:59N 35°56' W 005°09'  
2018-Apr-21 17:33N 37°02' E 012°18'613.4
2018-Apr-21 17:06N 36°59' E 012°25'313.3
2018-Apr-21 16:52N 36°58' E 012°29'813.7
2018-Apr-21 16:18N 36°55' E 012°37'411.1
2018-Apr-21 15:57N 36°54' E 012°42'613.5
2018-Apr-21 15:30N 36°51' E 012°49'612.7
2018-Apr-21 15:00N 36°49' E 012°56'713.3
2018-Apr-21 14:30N 36°46' E 013°04'612.9
2018-Apr-21 14:00N 36°43' E 013°11'815.7
2018-Apr-21 13:30N 36°40' E 013°20'611.6
2018-Apr-21 12:59N 36°38' E 013°27'814.3
2018-Apr-21 12:27N 36°35' E 013°36'613.8
2018-Apr-21 11:59N 36°32' E 013°43'815.1
2018-Apr-21 11:28N 36°28' E 013°52'3 7.7
2018-Apr-21 11:00N 36°27' E 013°55'713.3
2018-Apr-21 10:30N 36°24' E 014°03'712.9
2018-Apr-21 10:00N 36°22' E 014°11'713.5
2018-Apr-21 09:31N 36°20' E 014°18'713.4
2018-Apr-21 09:00N 36°17' E 014°26'712.9
2018-Apr-21 08:30N 36°15' E 014°34'814.7
2018-Apr-21 07:59N 36°12' E 014°43'5312.7
2018-Apr-21 03:51N 35°48' E 015°41'  

Dump ship's entire track history